KRCZ

Richmond County Airport

Rockingham, North Carolina, USA
METAR KRCZ 280035Z AUTO 15007KT 10SM SCT029 SCT035 25/20 A3000 RMK AO2 T02460200
Observed Flight Rules
May-28 @ 00:35 UTC (20 minutes ago) Visual Flight Rules
Wind Visibility Clouds
150° at 7 knots 10 miles
  • Scattered at 2,900' AGL
  • Scattered at 3,500' AGL
Temperatures Readings
Current 25°C / 77°F
Dewpoint 20°C / 68°F
Humidity 74%
Altimeter 30" Hg
Pressure 1016 hPa
Elevation 109
METAR KRCZ 280035Z AUTO 15007KT 10SM SCT029 SCT035 25/20 A3000 RMK AO2 T02460200
Observed Flight Rules
May-28 @ 00:35 UTC
(20 minutes ago)
VFR
Wind Visibility
150° at 7 knots 10 miles
Clouds
  • Scattered at 2,900' AGL
  • Scattered at 3,500' AGL
Temperature Dewpoint
25°C / 77°F 20°C / 68°F
Humidity Altimeter Pressure
74% 30" Hg 1016 hPa